Time;durP1;ratioP1;P1;durP2;ratioP2;P2;SDS_P1;SDS_P2;PMS_P1;PMS_P2;Temp;Humidity;BMP_temperature;BMP_pressure;BME280_temperature;BME280_humidity;BME280_pressure;Samples;Min_cycle;Max_cycle;Signal;HPM_P1;HPM_P2
2023/03/02 00:00:15;;;;;;;13.40;9.60;;;;;;;5.49;86.07;97821.31;110126;1243;69547;-67
2023/03/02 00:03:05;;;;;;;23.60;14.50;;;;;;;5.48;86.21;97818.09;110125;1244;70892;-65
2023/03/02 00:05:36;;;;;;;19.20;11.30;;;;;;;5.46;85.40;97816.82;110138;1245;69131;-67
2023/03/02 00:08:08;;;;;;;20.00;12.50;;;;;;;5.46;85.05;97818.70;110135;1241;58880;-65
2023/03/02 00:10:38;;;;;;;21.70;12.40;;;;;;;5.47;85.18;97815.71;110160;1244;58936;-65
2023/03/02 00:13:08;;;;;;;13.90;10.40;;;;;;;5.48;85.05;97810.16;110207;1245;71197;-66
2023/03/02 00:15:37;;;;;;;18.30;9.40;;;;;;;5.46;85.07;97811.58;110141;1241;69327;-65
2023/03/02 00:18:06;;;;;;;16.10;9.20;;;;;;;5.47;84.73;97813.81;110155;1241;70029;-66
2023/03/02 00:20:35;;;;;;;15.80;9.90;;;;;;;5.47;84.15;97811.21;110196;1241;58934;-66
2023/03/02 00:23:05;;;;;;;14.90;9.80;;;;;;;5.46;84.25;97806.95;110154;1241;58929;-66
2023/03/02 00:25:35;;;;;;;15.10;9.00;;;;;;;5.45;84.81;97804.05;110149;1242;69799;-66
2023/03/02 00:28:06;;;;;;;15.80;8.30;;;;;;;5.42;85.69;97802.30;110098;1241;69661;-66
2023/03/02 00:30:39;;;;;;;15.90;9.60;;;;;;;5.39;84.50;97801.03;110104;1244;69462;-66
2023/03/02 00:33:08;;;;;;;12.80;9.00;;;;;;;5.36;84.83;97801.00;110139;1243;58998;-67
2023/03/02 00:35:40;;;;;;;12.40;8.80;;;;;;;5.36;85.71;97799.77;110146;1241;58906;-66
2023/03/02 00:38:11;;;;;;;14.30;8.30;;;;;;;5.39;85.21;97797.95;110176;1246;69763;-65
2023/03/02 00:40:47;;;;;;;14.50;10.70;;;;;;;5.39;84.98;97794.63;110127;1241;68751;-65
2023/03/02 00:43:21;;;;;;;13.80;8.60;;;;;;;5.41;85.28;97793.69;109917;1241;68605;-65
2023/03/02 00:45:52;;;;;;;12.90;8.50;;;;;;;5.40;85.14;97791.83;110120;1241;58999;-65
2023/03/02 00:48:22;;;;;;;;;;;;;;;5.39;85.65;97788.94;110159;1243;58850;-65
2023/03/02 00:50:52;;;;;;;15.10;9.60;;;;;;;5.38;85.58;97789.17;110164;1241;69820;-65
2023/03/02 00:53:22;;;;;;;15.00;9.90;;;;;;;5.37;85.74;97785.91;110214;1244;69179;-65
2023/03/02 00:55:54;;;;;;;13.70;9.50;;;;;;;5.37;86.60;97782.80;110171;1243;69084;-66
2023/03/02 00:58:25;;;;;;;18.00;11.10;;;;;;;5.36;86.44;97775.92;110139;1244;58964;-67
2023/03/02 01:00:56;;;;;;;20.60;14.30;;;;;;;5.36;85.95;97773.85;110159;1244;58929;-67
2023/03/02 01:03:27;;;;;;;21.80;13.10;;;;;;;5.35;85.78;97769.91;110187;1241;69736;-67
2023/03/02 01:05:59;;;;;;;15.40;10.60;;;;;;;5.34;86.19;97767.55;110169;1244;68385;-67
2023/03/02 01:08:30;;;;;;;17.00;10.50;;;;;;;5.32;86.66;97766.77;110147;1241;68423;-66
2023/03/02 01:11:00;;;;;;;13.50;9.20;;;;;;;5.31;86.33;97765.77;110081;1245;58876;-66
2023/03/02 01:13:30;;;;;;;;;;;;;;;5.31;85.33;97767.36;110133;1244;58869;-67
2023/03/02 01:16:03;;;;;;;11.80;7.00;;;;;;;5.30;85.45;97766.17;110131;1245;69916;-67
2023/03/02 01:18:37;;;;;;;10.40;7.00;;;;;;;5.30;84.90;97766.69;110161;1241;69038;-67
2023/03/02 01:21:12;;;;;;;8.60;6.30;;;;;;;5.28;84.95;97770.10;110093;1243;69425;-65
2023/03/02 01:23:42;;;;;;;7.10;6.20;;;;;;;5.25;85.05;97772.10;110114;1244;58938;-67
2023/03/02 01:26:12;;;;;;;10.60;6.30;;;;;;;5.20;85.38;97774.42;110156;1245;58845;-65
2023/03/02 01:28:42;;;;;;;9.00;6.30;;;;;;;5.08;86.36;97772.38;110153;1245;69614;-66
2023/03/02 01:31:12;;;;;;;9.10;6.10;;;;;;;5.07;86.70;97771.04;110096;1241;67529;-67
2023/03/02 01:33:42;;;;;;;;;;;;;;;5.05;86.60;97768.17;110165;1241;67453;-67
2023/03/02 01:36:14;;;;;;;12.40;7.80;;;;;;;5.03;85.79;97763.96;110165;1245;58944;-67
2023/03/02 01:38:44;;;;;;;12.80;7.10;;;;;;;5.02;86.19;97761.77;110143;1242;58806;-66
2023/03/02 01:41:15;;;;;;;11.50;7.20;;;;;;;5.01;85.60;97761.63;110142;1241;70114;-66
2023/03/02 01:43:46;;;;;;;11.70;6.30;;;;;;;5.01;84.99;97763.36;110171;1245;69127;-67
2023/03/02 01:46:33;;;;;;;10.00;6.50;;;;;;;5.00;85.02;97762.69;110142;1243;69319;-66
2023/03/02 01:49:11;;;;;;;8.50;6.40;;;;;;;5.01;84.95;97767.33;110155;1241;58869;-67
2023/03/02 01:51:59;;;;;;;8.10;6.10;;;;;;;5.01;85.03;97765.44;110140;1241;58908;-67
2023/03/02 01:54:30;;;;;;;7.40;5.40;;;;;;;5.01;84.76;97764.05;110114;1241;69812;-66
2023/03/02 01:57:02;;;;;;;9.50;6.10;;;;;;;5.02;84.18;97763.13;110123;1243;68691;-67
2023/03/02 01:59:33;;;;;;;8.30;5.40;;;;;;;5.04;83.73;97762.21;110093;1241;67656;-66
2023/03/02 02:02:08;;;;;;;10.20;6.10;;;;;;;5.04;83.57;97761.69;110151;1245;59738;-67
2023/03/02 02:04:39;;;;;;;10.00;6.60;;;;;;;5.03;83.73;97759.27;110141;1244;59715;-67
2023/03/02 02:07:10;;;;;;;9.30;6.50;;;;;;;5.01;84.56;97758.02;110059;1245;71422;-66
2023/03/02 02:09:51;;;;;;;6.60;5.30;;;;;;;4.99;84.98;97758.78;110158;1241;69223;-66
2023/03/02 02:12:23;;;;;;;8.20;5.30;;;;;;;4.99;83.76;97755.85;110113;1245;68442;-67
2023/03/02 02:14:59;;;;;;;10.10;6.40;;;;;;;4.99;84.77;97755.16;110079;1244;59786;-67
2023/03/02 02:17:30;;;;;;;8.50;5.00;;;;;;;4.99;84.97;97754.48;110173;1241;59599;-67
2023/03/02 02:20:34;;;;;;;8.70;5.20;;;;;;;4.99;85.37;97750.66;110123;1241;70559;-67
2023/03/02 02:23:35;;;;;;;11.10;6.00;;;;;;;4.99;85.49;97751.20;110124;1244;69234;-67
2023/03/02 02:26:25;;;;;;;8.30;5.40;;;;;;;4.99;85.28;97748.58;110154;1241;69901;-66
2023/03/02 02:29:06;;;;;;;9.20;5.20;;;;;;;4.99;85.45;97750.66;110148;1244;59688;-66
2023/03/02 02:31:47;;;;;;;9.70;5.40;;;;;;;4.98;84.73;97746.73;110145;1243;59682;-66
2023/03/02 02:34:33;;;;;;;9.60;4.90;;;;;;;4.97;84.54;97745.55;110092;1244;71467;-67
2023/03/02 02:37:14;;;;;;;9.70;5.00;;;;;;;4.98;84.14;97743.44;110142;1245;68503;-66
2023/03/02 02:39:48;;;;;;;7.20;4.70;;;;;;;4.98;83.97;97742.57;110123;1246;69673;-66
2023/03/02 02:42:25;;;;;;;7.90;5.50;;;;;;;4.99;84.30;97742.73;110070;1244;59731;-67
2023/03/02 02:45:02;;;;;;;6.90;4.70;;;;;;;4.99;83.86;97733.57;110132;1241;59741;-67
2023/03/02 02:47:33;;;;;;;10.50;5.40;;;;;;;4.99;83.42;97733.56;110096;1241;71714;-66
2023/03/02 02:50:03;;;;;;;10.40;5.20;;;;;;;4.97;83.15;97731.93;110158;1244;68379;-67
2023/03/02 02:52:33;;;;;;;8.50;5.30;;;;;;;4.97;82.95;97732.60;110135;1248;69608;-66
2023/03/02 02:55:05;;;;;;;8.40;5.10;;;;;;;4.98;82.70;97730.16;110151;1243;59718;-66
2023/03/02 02:57:36;;;;;;;8.10;4.50;;;;;;;4.99;82.74;97725.98;110166;1245;59672;-66
2023/03/02 03:00:18;;;;;;;7.60;4.60;;;;;;;4.97;82.80;97727.59;110113;1244;71397;-66
2023/03/02 03:03:05;;;;;;;7.70;4.90;;;;;;;4.95;83.24;97726.30;110064;1245;69060;-66
2023/03/02 03:05:37;;;;;;;7.20;4.40;;;;;;;4.95;83.34;97728.41;110148;1245;68518;-67
2023/03/02 03:08:09;;;;;;;7.60;4.90;;;;;;;4.92;83.15;97721.80;110100;1245;59734;-66
2023/03/02 03:10:40;;;;;;;7.20;4.50;;;;;;;4.90;83.14;97716.52;110107;1243;59715;-66
2023/03/02 03:13:11;;;;;;;7.00;4.10;;;;;;;4.91;82.41;97716.85;110093;1244;72052;-67
2023/03/02 03:15:41;;;;;;;6.80;4.30;;;;;;;4.89;82.44;97716.39;110166;1245;69270;-66
2023/03/02 03:18:12;;;;;;;;;;;;;;;4.90;82.29;97720.52;110147;1242;69763;-66
2023/03/02 03:20:44;;;;;;;6.30;4.00;;;;;;;4.89;82.23;97715.02;110221;1244;59634;-66
2023/03/02 03:23:13;;;;;;;8.10;4.60;;;;;;;4.91;81.96;97717.55;110208;1245;59627;-66
2023/03/02 03:25:43;;;;;;;6.50;4.20;;;;;;;4.90;82.17;97713.60;110167;1245;71787;-66
2023/03/02 03:28:15;;;;;;;10.30;5.70;;;;;;;4.90;82.11;97718.45;110118;1244;69135;-66
2023/03/02 03:30:46;;;;;;;9.40;5.10;;;;;;;4.89;83.44;97719.16;110150;1245;68911;-66
2023/03/02 03:33:17;;;;;;;9.00;5.40;;;;;;;4.89;84.23;97714.66;110152;1246;59712;-66
2023/03/02 03:35:47;;;;;;;6.80;4.50;;;;;;;4.90;84.77;97717.41;110185;1241;59743;-66
2023/03/02 03:38:17;;;;;;;7.40;4.70;;;;;;;4.89;84.50;97718.45;110123;1246;70527;-66
2023/03/02 03:40:47;;;;;;;9.20;4.70;;;;;;;4.89;84.45;97716.90;110167;1245;69006;-66
2023/03/02 03:43:17;;;;;;;11.60;5.20;;;;;;;4.90;83.26;97714.98;110123;1244;68502;-66
2023/03/02 03:45:52;;;;;;;8.50;4.60;;;;;;;4.90;83.19;97714.29;110086;1245;59737;-66
2023/03/02 03:48:22;;;;;;;7.10;4.60;;;;;;;4.90;82.44;97716.73;110133;1245;59789;-68
2023/03/02 03:50:53;;;;;;;6.40;4.30;;;;;;;4.90;81.94;97712.05;110059;1246;71786;-66
2023/03/02 03:53:23;;;;;;;5.80;4.10;;;;;;;4.90;82.61;97714.46;110057;1241;67639;-66
2023/03/02 03:55:55;;;;;;;10.00;4.80;;;;;;;4.91;82.70;97716.52;110138;1241;68599;-66
2023/03/02 03:58:26;;;;;;;6.10;3.50;;;;;;;4.90;82.67;97712.04;110147;1242;59696;-66
2023/03/02 04:00:57;;;;;;;6.10;3.60;;;;;;;4.91;82.11;97710.98;110158;1245;59740;-67
2023/03/02 04:03:29;;;;;;;6.70;4.40;;;;;;;4.90;81.73;97710.14;110139;1244;71866;-68
2023/03/02 04:05:58;;;;;;;6.60;4.20;;;;;;;4.90;81.61;97705.63;110146;1245;68397;-66
2023/03/02 04:08:28;;;;;;;9.30;4.90;;;;;;;4.89;81.71;97707.06;110144;1250;69844;-67
2023/03/02 04:10:58;;;;;;;7.60;4.60;;;;;;;4.89;82.08;97707.27;110115;1243;59671;-66
2023/03/02 04:13:28;;;;;;;;;;;;;;;4.86;81.91;97707.89;110173;1243;59681;-66
2023/03/02 04:15:58;;;;;;;8.80;5.10;;;;;;;4.84;82.00;97707.81;110155;1241;71528;-67
2023/03/02 04:18:27;;;;;;;7.40;4.50;;;;;;;4.82;82.15;97707.03;110147;1241;68488;-66
2023/03/02 04:20:58;;;;;;;8.00;4.70;;;;;;;4.80;82.30;97704.52;110171;1241;67466;-66
2023/03/02 04:23:28;;;;;;;8.40;4.70;;;;;;;4.80;82.18;97703.33;110118;1244;59700;-66
2023/03/02 04:25:57;;;;;;;9.10;4.40;;;;;;;4.78;82.19;97699.97;110182;1241;59746;-67
2023/03/02 04:28:28;;;;;;;7.10;3.90;;;;;;;4.76;82.38;97700.76;110143;1244;71230;-67
2023/03/02 04:30:58;;;;;;;6.90;4.60;;;;;;;4.74;82.78;97699.45;110156;1241;69299;-70
2023/03/02 04:33:27;;;;;;;8.90;5.20;;;;;;;4.74;82.35;97700.17;110153;1245;70193;-67
2023/03/02 04:35:57;;;;;;;6.30;3.80;;;;;;;4.72;82.53;97697.98;110191;1243;59638;-67
2023/03/02 04:38:28;;;;;;;8.00;4.10;;;;;;;4.71;82.12;97700.63;110137;1243;59672;-66
2023/03/02 04:40:59;;;;;;;9.50;4.00;;;;;;;4.72;81.87;97700.27;110120;1245;71242;-66
2023/03/02 04:43:28;;;;;;;6.80;4.00;;;;;;;4.72;81.57;97706.31;110141;1241;69118;-66
2023/03/02 04:45:58;;;;;;;9.40;4.20;;;;;;;4.72;81.33;97705.25;110166;1241;69865;-65
2023/03/02 04:48:28;;;;;;;7.30;4.60;;;;;;;4.72;81.26;97705.23;110094;1245;59744;-66
2023/03/02 04:50:57;;;;;;;7.90;5.20;;;;;;;4.72;81.80;97705.28;110172;1242;59612;-66
2023/03/02 04:53:27;;;;;;;10.10;6.50;;;;;;;4.73;81.31;97703.15;110179;1241;70794;-66
2023/03/02 04:55:57;;;;;;;15.00;8.90;;;;;;;4.72;81.06;97705.59;110129;1245;68412;-66
2023/03/02 04:58:27;;;;;;;16.80;11.10;;;;;;;4.72;81.36;97706.98;110124;1244;68515;-66
2023/03/02 05:01:01;;;;;;;17.30;8.40;;;;;;;4.71;81.56;97710.11;110145;1245;59697;-67
2023/03/02 05:03:31;;;;;;;10.40;6.90;;;;;;;4.72;81.17;97708.03;110184;1241;59769;-67
2023/03/02 05:06:04;;;;;;;;;;;;;;;4.71;81.07;97711.83;110166;1244;71422;-66
2023/03/02 05:08:34;;;;;;;8.20;4.90;;;;;;;4.72;80.83;97708.38;110181;1242;68571;-66
2023/03/02 05:11:05;;;;;;;8.20;5.70;;;;;;;4.72;80.56;97710.42;110107;1241;69678;-66
2023/03/02 05:13:34;;;;;;;7.40;5.00;;;;;;;4.72;80.55;97711.64;110147;1241;59628;-65
2023/03/02 05:16:04;;;;;;;8.00;5.20;;;;;;;4.73;80.68;97714.35;110106;1245;59694;-65
2023/03/02 05:18:35;;;;;;;15.50;8.20;;;;;;;4.74;80.50;97714.31;110109;1244;70627;-65
2023/03/02 05:21:05;;;;;;;13.70;7.20;;;;;;;4.75;80.59;97712.89;110134;1245;69081;-65
2023/03/02 05:23:34;;;;;;;10.80;6.30;;;;;;;4.76;80.61;97715.94;110116;1245;70051;-65
2023/03/02 05:26:03;;;;;;;8.80;5.40;;;;;;;4.78;80.68;97717.75;110142;1245;59714;-65
2023/03/02 05:28:33;;;;;;;10.20;5.20;;;;;;;4.80;80.56;97718.19;110166;1245;59736;-66
2023/03/02 05:31:03;;;;;;;9.00;4.80;;;;;;;4.82;80.74;97722.23;110116;1241;71481;-66
2023/03/02 05:33:32;;;;;;;8.10;5.20;;;;;;;4.85;80.90;97725.56;110144;1247;69231;-66
2023/03/02 05:36:02;;;;;;;9.00;4.90;;;;;;;4.87;81.30;97729.45;110146;1251;69371;-66
2023/03/02 05:38:31;;;;;;;8.60;5.90;;;;;;;4.89;80.98;97728.85;110097;1245;59716;-66
2023/03/02 05:41:00;;;;;;;9.20;6.80;;;;;;;4.91;80.26;97729.77;110155;1241;59691;-66
2023/03/02 05:43:30;;;;;;;10.00;6.50;;;;;;;4.95;81.22;97731.17;110168;1243;71975;-65
2023/03/02 05:45:59;;;;;;;11.40;8.90;;;;;;;4.97;81.00;97735.18;110167;1246;69226;-65
2023/03/02 05:48:29;;;;;;;11.40;8.10;;;;;;;4.99;81.12;97735.62;110093;1241;68771;-65
2023/03/02 05:50:59;;;;;;;11.30;8.90;;;;;;;5.04;81.74;97741.83;110157;1244;59736;-66
2023/03/02 05:53:28;;;;;;;10.40;7.60;;;;;;;5.07;79.97;97739.94;110135;1245;59896;-65
2023/03/02 05:55:57;;;;;;;10.50;8.50;;;;;;;5.11;79.45;97738.21;110163;1244;70491;-65
2023/03/02 05:58:26;;;;;;;14.20;9.20;;;;;;;5.15;79.90;97735.61;110141;1244;69987;-65
2023/03/02 06:00:55;;;;;;;13.80;9.20;;;;;;;5.19;78.86;97737.52;110142;1245;69727;-65
2023/03/02 06:03:25;;;;;;;16.20;9.50;;;;;;;5.24;79.68;97744.88;110162;1244;59693;-66
2023/03/02 06:05:55;;;;;;;14.30;10.60;;;;;;;5.29;79.83;97744.46;110133;1244;59741;-67
2023/03/02 06:08:24;;;;;;;13.80;8.80;;;;;;;5.33;78.82;97747.56;110174;1243;71322;-66
2023/03/02 06:10:56;;;;;;;12.60;8.80;;;;;;;5.37;78.58;97750.48;110135;1241;70232;-67
2023/03/02 06:13:25;;;;;;;12.70;8.20;;;;;;;5.41;77.79;97751.34;110192;1242;69268;-68
2023/03/02 06:15:55;;;;;;;12.30;8.60;;;;;;;5.44;78.06;97750.66;110223;1246;59734;-66
2023/03/02 06:18:24;;;;;;;;;;;;;;;5.48;79.08;97749.45;110213;1244;59672;-66
2023/03/02 06:20:54;;;;;;;8.90;6.30;;;;;;;5.52;77.61;97751.85;110153;1245;71978;-66
2023/03/02 06:23:24;;;;;;;7.20;5.10;;;;;;;5.57;77.41;97753.19;110065;1245;69852;-66
2023/03/02 06:25:54;;;;;;;8.00;5.80;;;;;;;5.61;77.91;97754.54;110117;1245;69208;-66
2023/03/02 06:28:24;;;;;;;10.80;7.20;;;;;;;5.61;76.47;97746.90;110175;1245;59750;-66
2023/03/02 06:30:52;;;;;;;9.90;6.50;;;;;;;5.65;76.77;97750.74;110181;1245;60129;-66
2023/03/02 06:33:22;;;;;;;10.60;6.30;;;;;;;5.67;76.72;97751.17;110110;1245;70629;-67
2023/03/02 06:35:51;;;;;;;8.90;6.30;;;;;;;5.70;77.11;97749.14;110185;1245;69367;-65
2023/03/02 06:38:21;;;;;;;9.50;6.20;;;;;;;5.74;76.61;97753.95;110144;1245;68500;-65
2023/03/02 06:40:49;;;;;;;8.70;5.40;;;;;;;5.79;75.92;97753.35;110196;1243;59763;-67
2023/03/02 06:43:19;;;;;;;8.10;5.80;;;;;;;5.84;75.93;97753.09;110141;1245;59652;-66
2023/03/02 06:45:49;;;;;;;12.20;7.50;;;;;;;5.92;76.73;97755.00;110117;1241;70612;-65
2023/03/02 06:48:19;;;;;;;11.00;7.90;;;;;;;5.96;76.71;97754.61;110119;1245;69231;-65
2023/03/02 06:50:48;;;;;;;12.70;9.40;;;;;;;5.97;74.39;97757.19;110131;1241;68808;-65
2023/03/02 06:53:19;;;;;;;14.10;9.60;;;;;;;6.03;74.97;97759.46;110139;1245;59711;-67
2023/03/02 06:55:48;;;;;;;16.50;9.60;;;;;;;6.08;75.13;97758.73;110118;1244;59712;-67
2023/03/02 06:58:17;;;;;;;7.00;5.10;;;;;;;6.10;73.55;97756.20;110122;1241;70630;-67
2023/03/02 07:00:47;;;;;;;5.90;3.40;;;;;;;6.18;73.12;97752.36;110159;1245;69711;-67
2023/03/02 07:03:17;;;;;;;5.90;3.30;;;;;;;6.20;71.97;97749.80;110060;1247;69877;-65
2023/03/02 07:05:47;;;;;;;5.20;3.10;;;;;;;6.22;70.63;97752.50;110139;1241;59757;-66
2023/03/02 07:08:17;;;;;;;5.20;2.60;;;;;;;6.28;71.12;97753.23;110168;1245;59679;-66
2023/03/02 07:10:45;;;;;;;4.30;3.50;;;;;;;6.33;71.21;97748.27;110153;1244;72083;-66
2023/03/02 07:13:14;;;;;;;6.40;3.50;;;;;;;6.40;70.32;97747.05;110154;1244;69791;-66
2023/03/02 07:15:43;;;;;;;6.80;4.10;;;;;;;6.51;70.44;97752.04;110223;1246;70177;-66
2023/03/02 07:18:12;;;;;;;5.80;3.80;;;;;;;6.60;70.12;97750.70;110172;1245;59675;-66
2023/03/02 07:20:41;;;;;;;5.30;3.30;;;;;;;6.68;69.28;97745.85;110148;1247;59638;-66
2023/03/02 07:23:10;;;;;;;4.70;3.00;;;;;;;6.80;70.72;97743.79;110148;1245;72022;-66
2023/03/02 07:25:39;;;;;;;4.60;3.10;;;;;;;6.93;69.23;97743.44;110062;1242;246665;-67
2023/03/02 07:28:09;;;;;;;5.10;3.00;;;;;;;7.05;68.87;97744.89;110214;1251;69458;-65
2023/03/02 07:30:38;;;;;;;5.90;3.40;;;;;;;7.17;67.51;97746.84;110152;1251;59805;-66
2023/03/02 07:33:06;;;;;;;5.70;3.50;;;;;;;7.33;68.86;97747.70;110149;1241;59750;-66
2023/03/02 07:35:35;;;;;;;5.10;3.10;;;;;;;7.40;67.39;97747.17;110078;1249;71369;-66
2023/03/02 07:38:04;;;;;;;4.80;3.00;;;;;;;7.48;65.44;97749.35;110135;1242;69282;-66
2023/03/02 07:40:34;;;;;;;4.60;3.30;;;;;;;7.57;66.92;97749.17;110197;1245;68533;-66
2023/03/02 07:43:03;;;;;;;5.60;3.30;;;;;;;7.59;65.89;97750.47;110120;1245;59612;-66
2023/03/02 07:45:31;;;;;;;4.40;2.90;;;;;;;7.74;66.85;97747.04;110110;1245;59697;-67
2023/03/02 07:48:01;;;;;;;4.30;2.90;;;;;;;7.84;65.99;97748.92;110143;1241;72303;-67
2023/03/02 07:50:31;;;;;;;4.20;2.80;;;;;;;7.83;65.00;97747.90;110139;1243;68763;-66
2023/03/02 07:53:00;;;;;;;5.90;3.10;;;;;;;7.93;65.70;97750.14;110151;1247;69866;-66
2023/03/02 07:55:29;;;;;;;5.20;3.90;;;;;;;7.96;64.53;97749.45;110153;1245;59726;-67
2023/03/02 07:57:58;;;;;;;7.20;3.00;;;;;;;7.98;64.37;97746.89;110173;1242;59675;-66
2023/03/02 08:00:26;;;;;;;5.60;2.50;;;;;;;7.97;62.59;97744.36;110237;1242;71288;-66
2023/03/02 08:02:56;;;;;;;4.70;3.10;;;;;;;7.99;62.82;97747.68;110134;1240;69400;-66
2023/03/02 08:05:25;;;;;;;3.80;2.70;;;;;;;8.06;63.24;97743.14;110146;1243;69261;-67
2023/03/02 08:07:54;;;;;;;4.20;2.40;;;;;;;8.16;62.75;97743.08;110184;1242;59673;-67
2023/03/02 08:10:23;;;;;;;4.60;2.60;;;;;;;8.26;62.17;97740.23;110176;1242;59679;-66
2023/03/02 08:12:52;;;;;;;4.10;2.70;;;;;;;8.33;62.22;97738.65;110162;1242;71192;-67
2023/03/02 08:15:22;;;;;;;4.90;2.50;;;;;;;8.29;61.94;97739.90;110177;1241;68341;-66
2023/03/02 08:17:51;;;;;;;4.90;3.20;;;;;;;8.23;61.76;97741.48;110199;1245;69144;-66
2023/03/02 08:20:21;;;;;;;6.70;4.00;;;;;;;8.23;61.83;97739.55;110104;1241;59679;-66
2023/03/02 08:22:50;;;;;;;6.50;3.10;;;;;;;8.26;61.83;97738.15;110142;1243;59750;-66
2023/03/02 08:25:19;;;;;;;4.80;2.60;;;;;;;8.28;60.80;97739.62;110130;1247;71193;-67
2023/03/02 08:27:50;;;;;;;4.10;2.90;;;;;;;8.36;61.57;97735.87;110137;1244;69800;-68
2023/03/02 08:30:20;;;;;;;3.90;3.00;;;;;;;8.38;60.94;97739.92;110133;1241;69826;-68
2023/03/02 08:32:49;;;;;;;4.00;2.60;;;;;;;8.37;59.89;97737.36;110153;1241;59763;-67
2023/03/02 08:35:20;;;;;;;4.50;2.70;;;;;;;8.45;60.57;97734.14;110112;1245;59633;-67
2023/03/02 08:37:49;;;;;;;4.60;2.80;;;;;;;8.52;59.79;97732.48;110166;1250;71347;-67
2023/03/02 08:40:19;;;;;;;6.20;3.80;;;;;;;8.58;59.29;97727.80;110183;1241;69214;-67
2023/03/02 08:42:48;;;;;;;4.80;2.90;;;;;;;8.64;59.64;97729.71;110164;1242;69207;-68
2023/03/02 08:45:19;;;;;;;5.00;3.00;;;;;;;8.83;59.45;97728.73;110202;1242;59689;-68
2023/03/02 08:47:51;;;;;;;3.60;2.50;;;;;;;8.96;58.59;97731.56;110169;1241;59727;-67
2023/03/02 08:50:20;;;;;;;5.40;2.70;;;;;;;9.03;57.37;97728.52;110157;1243;71375;-68
2023/03/02 08:52:50;;;;;;;4.50;3.00;;;;;;;9.17;57.07;97730.81;110147;1242;68440;-67
2023/03/02 08:55:19;;;;;;;5.20;2.60;;;;;;;9.39;55.53;97722.50;110092;1246;69873;-68
2023/03/02 08:57:49;;;;;;;4.40;2.60;;;;;;;9.96;55.47;97717.21;110120;1243;59964;-68
2023/03/02 09:00:19;;;;;;;5.20;2.80;;;;;;;10.78;54.71;97717.88;110102;1243;59595;-66
2023/03/02 09:02:47;;;;;;;5.40;2.60;;;;;;;11.26;54.09;97718.17;110111;1244;71066;-67
2023/03/02 09:05:16;;;;;;;7.00;2.80;;;;;;;11.76;51.46;97716.73;110133;1244;69829;-68
2023/03/02 09:07:45;;;;;;;4.20;2.70;;;;;;;12.18;49.52;97713.96;110188;1241;69835;-68
2023/03/02 09:10:14;;;;;;;4.90;2.80;;;;;;;12.89;48.17;97705.11;110304;1244;59760;-67
2023/03/02 09:12:43;;;;;;;5.90;2.80;;;;;;;13.62;46.35;97701.77;110214;1244;59679;-68
2023/03/02 09:15:13;;;;;;;5.20;2.70;;;;;;;14.33;44.32;97697.04;110228;1245;71370;-68
2023/03/02 09:17:41;;;;;;;4.50;2.40;;;;;;;15.18;44.35;97695.07;110198;1242;69872;-66
2023/03/02 09:20:11;;;;;;;3.10;2.30;;;;;;;16.06;44.61;97694.27;110161;1241;69832;-67
2023/03/02 09:22:46;;;;;;;4.90;2.40;;;;;;;15.76;40.08;97692.27;110173;1243;59670;-64
2023/03/02 09:25:19;;;;;;;3.40;2.60;;;;;;;15.53;40.43;97692.56;110176;1241;59733;-65
2023/03/02 09:27:48;;;;;;;4.10;2.20;;;;;;;15.48;40.54;97690.52;110144;1245;71958;-64
2023/03/02 09:30:19;;;;;;;5.20;2.40;;;;;;;16.22;40.95;97686.88;110137;1244;69233;-64
2023/03/02 09:32:48;;;;;;;4.00;2.20;;;;;;;16.61;39.20;97674.67;110110;1241;69872;-64
2023/03/02 09:35:17;;;;;;;5.70;2.40;;;;;;;15.79;36.97;97672.42;110170;1251;59685;-64
2023/03/02 09:37:45;;;;;;;5.30;2.60;;;;;;;15.56;38.18;97668.18;110141;1252;59624;-65
2023/03/02 09:40:19;;;;;;;4.80;2.60;;;;;;;16.62;39.12;97659.20;110125;1241;71341;-65
2023/03/02 09:43:17;;;;;;;5.40;2.20;;;;;;;16.71;37.09;97661.02;110134;1243;69203;-67
2023/03/02 09:46:16;;;;;;;4.30;2.50;;;;;;;17.06;37.37;97656.72;110167;1245;69876;-67
2023/03/02 09:49:32;;;;;;;3.40;2.10;;;;;;;17.88;34.52;97650.17;110151;1245;59763;-68
2023/03/02 09:52:20;;;;;;;3.70;2.10;;;;;;;18.22;34.53;97644.84;110098;1244;59723;-68
2023/03/02 09:54:50;;;;;;;4.40;2.40;;;;;;;18.90;33.15;97645.55;110192;1241;71389;-67
2023/03/02 09:57:28;;;;;;;3.30;2.50;;;;;;;18.08;32.97;97643.89;110163;1243;69309;-69
2023/03/02 10:00:13;;;;;;;6.30;2.70;;;;;;;17.25;34.24;97640.26;110142;1245;69294;-68
2023/03/02 10:02:53;;;;;;;4.40;2.40;;;;;;;18.36;33.89;97629.97;110154;1243;60091;-68
2023/03/02 10:05:33;;;;;;;3.10;2.30;;;;;;;18.27;33.24;97629.86;110133;1245;59621;-68
2023/03/02 10:08:02;;;;;;;3.40;2.30;;;;;;;18.73;32.55;97630.27;110191;1248;71072;-66
2023/03/02 10:10:45;;;;;;;;;;;;;;;18.50;33.21;97628.86;110194;1244;69478;-67
2023/03/02 10:13:27;;;;;;;3.70;2.50;;;;;;;20.02;32.67;97626.53;110112;1243;69872;-68
2023/03/02 10:16:14;;;;;;;5.60;2.30;;;;;;;20.70;30.62;97615.86;110183;1247;59753;-68
2023/03/02 10:19:23;;;;;;;4.40;2.50;;;;;;;20.74;30.52;97610.23;110178;1245;59683;-67
2023/03/02 10:22:15;;;;;;;3.90;2.20;;;;;;;20.97;29.57;97606.67;109556;1254;70239;-67
2023/03/02 10:25:16;;;;;;;4.50;2.30;;;;;;;20.52;29.33;97603.84;109571;1252;69837;-68
2023/03/02 10:27:53;;;;;;;3.20;2.50;;;;;;;19.78;30.68;97612.23;110043;1245;69270;-67
2023/03/02 10:30:35;;;;;;;5.80;2.50;;;;;;;19.18;29.99;97614.36;110124;1250;59734;-67
2023/03/02 10:33:23;;;;;;;5.50;2.10;;;;;;;19.06;31.67;97611.73;110090;1245;59715;-67
2023/03/02 10:35:53;;;;;;;3.90;2.10;;;;;;;19.72;30.21;97607.00;110080;1244;70440;-66
2023/03/02 10:38:24;;;;;;;4.60;2.30;;;;;;;19.65;30.44;97608.15;110055;1244;68740;-67
2023/03/02 10:41:00;;;;;;;4.40;2.20;;;;;;;19.00;31.20;97604.27;110053;1245;69248;-66
2023/03/02 10:43:36;;;;;;;3.70;2.00;;;;;;;20.30;31.46;97599.37;110000;1245;59679;-68
2023/03/02 10:46:07;;;;;;;3.80;2.50;;;;;;;20.74;29.16;97595.59;109886;1243;59759;-67
2023/03/02 10:48:56;;;;;;;3.80;2.50;;;;;;;20.30;29.57;97595.64;109863;1245;71980;-68
2023/03/02 10:51:30;;;;;;;6.20;3.50;;;;;;;20.78;30.69;97594.96;109805;1243;69494;-67
2023/03/02 10:54:03;;;;;;;5.50;3.10;;;;;;;21.15;30.67;97577.57;110028;1243;69276;-69
2023/03/02 10:56:32;;;;;;;5.70;3.20;;;;;;;19.81;31.03;97586.15;110010;1245;59747;-66
2023/03/02 10:59:36;;;;;;;3.60;2.60;;;;;;;20.26;31.50;97584.73;110087;1244;59701;-66
2023/03/02 11:02:22;;;;;;;5.60;3.20;;;;;;;20.87;31.14;97581.71;110032;1244;71426;-67
2023/03/02 11:04:56;;;;;;;4.60;3.60;;;;;;;21.94;29.54;97579.95;110095;1247;69855;-67
2023/03/02 11:07:28;;;;;;;4.60;3.70;;;;;;;21.77;29.03;97580.15;110157;1251;69908;-68
2023/03/02 11:10:04;;;;;;;4.80;3.00;;;;;;;22.44;29.11;97582.79;110169;1245;59742;-69
2023/03/02 11:12:35;;;;;;;5.00;3.20;;;;;;;22.35;28.99;97579.42;110158;1244;59742;-68
2023/03/02 11:15:17;;;;;;;5.20;3.20;;;;;;;22.55;27.95;97579.52;110121;1244;71969;-68
2023/03/02 11:18:22;;;;;;;5.20;3.50;;;;;;;20.98;28.78;97572.13;110112;1244;69834;-67
2023/03/02 11:21:04;;;;;;;4.70;3.20;;;;;;;21.56;29.83;97569.08;110095;1248;69274;-67
2023/03/02 11:23:53;;;;;;;5.80;4.00;;;;;;;21.15;29.67;97570.45;110136;1242;59690;-65
2023/03/02 11:26:24;;;;;;;4.50;3.30;;;;;;;20.31;30.76;97566.84;110168;1243;59753;-67
2023/03/02 11:28:55;;;;;;;5.00;3.40;;;;;;;19.57;31.99;97568.56;110131;1242;71318;-68
2023/03/02 11:31:38;;;;;;;4.80;3.00;;;;;;;19.67;32.17;97566.05;110164;1243;69683;-67
2023/03/02 11:34:38;;;;;;;6.10;3.40;;;;;;;19.80;31.68;97563.59;110162;1242;69871;-67
2023/03/02 11:37:25;;;;;;;4.90;2.90;;;;;;;18.78;32.89;97563.19;110128;1241;59695;-67
2023/03/02 11:40:12;;;;;;;4.70;2.80;;;;;;;18.69;32.68;97561.52;110128;1249;59645;-66
2023/03/02 11:42:44;;;;;;;4.10;2.60;;;;;;;19.72;31.93;97552.97;110155;1242;71952;-68
2023/03/02 11:45:13;;;;;;;5.10;2.40;;;;;;;19.91;31.48;97547.90;110131;1241;69365;-66
2023/03/02 11:47:58;;;;;;;4.00;2.70;;;;;;;20.49;30.44;97550.07;110127;1249;69957;-67
2023/03/02 11:50:50;;;;;;;5.10;2.70;;;;;;;20.93;29.60;97547.10;110149;1243;59665;-67
2023/03/02 11:53:21;;;;;;;7.10;3.00;;;;;;;20.86;30.07;97547.46;110128;1242;59682;-67
2023/03/02 11:55:50;;;;;;;5.50;3.40;;;;;;;21.57;29.70;97539.52;110202;1242;71770;-67
2023/03/02 11:58:22;;;;;;;5.00;2.90;;;;;;;21.82;29.42;97541.80;110194;1240;69198;-69